createdAt,value
2023-02-28T00:00:56.939Z,-0.72
2023-02-28T00:03:26.222Z,-0.72
2023-02-28T00:05:54.604Z,-0.75
2023-02-28T00:08:22.412Z,-0.71
2023-02-28T00:10:53.295Z,-0.71
2023-02-28T00:13:22.596Z,-0.76
2023-02-28T00:16:00.231Z,-0.76
2023-02-28T00:18:31.495Z,-0.83
2023-02-28T00:21:00.132Z,-0.81
2023-02-28T00:23:28.296Z,-0.85
2023-02-28T00:25:56.471Z,-0.80
2023-02-28T00:28:24.910Z,-0.77
2023-02-28T00:30:53.343Z,-0.75
2023-02-28T00:33:21.540Z,-0.73
2023-02-28T00:35:50.976Z,-0.81
2023-02-28T00:38:19.225Z,-0.77
2023-02-28T00:40:47.780Z,-0.83
2023-02-28T00:43:16.245Z,-0.85
2023-02-28T00:45:46.410Z,-0.84
2023-02-28T00:48:14.290Z,-0.86
2023-02-28T00:50:42.204Z,-0.88
2023-02-28T00:53:12.803Z,-0.79
2023-02-28T00:55:40.845Z,-0.86
2023-02-28T00:58:09.417Z,-0.80
2023-02-28T01:00:37.317Z,-0.76
2023-02-28T01:03:07.379Z,-0.72
2023-02-28T01:05:35.668Z,-0.79
2023-02-28T01:08:03.969Z,-0.76
2023-02-28T01:10:33.577Z,-0.76
2023-02-28T01:13:01.494Z,-0.77
2023-02-28T01:15:29.348Z,-0.66
2023-02-28T01:18:01.463Z,-0.65
2023-02-28T01:20:29.833Z,-0.70
2023-02-28T01:22:58.144Z,-0.87
2023-02-28T01:25:26.115Z,-0.81
2023-02-28T01:27:55.370Z,-0.89
2023-02-28T01:30:23.344Z,-0.87
2023-02-28T01:32:52.726Z,-0.80
2023-02-28T01:35:20.869Z,-0.89
2023-02-28T01:37:52.317Z,-0.94
2023-02-28T01:40:21.483Z,-0.97
2023-02-28T01:42:50.806Z,-0.93
2023-02-28T01:45:24.257Z,-1.01
2023-02-28T01:47:54.527Z,-0.97
2023-02-28T01:50:24.188Z,-0.97
2023-02-28T01:52:53.908Z,-1.07
2023-02-28T01:55:29.372Z,-1.13
2023-02-28T01:58:00.784Z,-1.23
2023-02-28T02:00:31.168Z,-1.32
2023-02-28T02:03:00.870Z,-1.23
2023-02-28T02:05:31.933Z,-1.21
2023-02-28T02:08:04.686Z,-1.30
2023-02-28T02:10:34.770Z,-1.29
2023-02-28T02:13:22.078Z,-1.34
2023-02-28T02:15:58.707Z,-1.35
2023-02-28T02:18:29.979Z,-1.35
2023-02-28T02:21:18.193Z,-1.40
2023-02-28T02:23:59.172Z,-1.47
2023-02-28T02:26:46.392Z,-1.38
2023-02-28T02:29:33.912Z,-1.37
2023-02-28T02:32:12.112Z,-1.40
2023-02-28T02:34:45.813Z,-1.38
2023-02-28T02:37:17.622Z,-1.48
2023-02-28T02:39:51.193Z,-1.53
2023-02-28T02:42:23.821Z,-1.55
2023-02-28T02:44:55.111Z,-1.63
2023-02-28T02:47:26.547Z,-1.54
2023-02-28T02:49:57.619Z,-1.57
2023-02-28T02:52:27.404Z,-1.57
2023-02-28T02:54:57.157Z,-1.65
2023-02-28T02:57:27.285Z,-1.64
2023-02-28T02:59:57.958Z,-1.65
2023-02-28T03:02:26.964Z,-1.68
2023-02-28T03:05:01.973Z,-1.66
2023-02-28T03:07:29.734Z,-1.68
2023-02-28T03:09:58.800Z,-1.66
2023-02-28T03:12:33.970Z,-1.65
2023-02-28T03:15:09.355Z,-1.64
2023-02-28T03:17:52.285Z,-1.73
2023-02-28T03:20:30.012Z,-1.76
2023-02-28T03:23:04.189Z,-1.78
2023-02-28T03:25:35.330Z,-1.76
2023-02-28T03:28:05.568Z,-1.75
2023-02-28T03:30:38.373Z,-1.79
2023-02-28T03:33:10.500Z,-1.68
2023-02-28T03:35:44.319Z,-1.60
2023-02-28T03:38:15.135Z,-1.52
2023-02-28T03:40:45.211Z,-1.71
2023-02-28T03:43:15.744Z,-1.75
2023-02-28T03:45:44.643Z,-1.71
2023-02-28T03:48:15.287Z,-1.84
2023-02-28T03:50:46.445Z,-1.85
2023-02-28T03:53:16.144Z,-1.72
2023-02-28T03:55:48.597Z,-1.63
2023-02-28T03:58:19.768Z,-1.64
2023-02-28T04:00:49.789Z,-1.59
2023-02-28T04:03:22.338Z,-1.61
2023-02-28T04:05:54.724Z,-1.74
2023-02-28T04:08:25.802Z,-1.86
2023-02-28T04:10:57.263Z,-1.90
2023-02-28T04:13:25.296Z,-1.78
2023-02-28T04:15:53.112Z,-1.74
2023-02-28T04:18:21.195Z,-1.75
2023-02-28T04:20:49.037Z,-1.77
2023-02-28T04:23:18.318Z,-1.79
2023-02-28T04:25:46.641Z,-1.67
2023-02-28T04:28:14.891Z,-1.58
2023-02-28T04:30:42.824Z,-1.47
2023-02-28T04:33:10.839Z,-1.34
2023-02-28T04:35:38.656Z,-1.29
2023-02-28T04:38:06.808Z,-1.32
2023-02-28T04:40:37.872Z,-1.28
2023-02-28T04:43:06.164Z,-1.30
2023-02-28T04:45:35.266Z,-1.27
2023-02-28T04:48:03.134Z,-1.34
2023-02-28T04:50:31.403Z,-1.24
2023-02-28T04:52:59.166Z,-1.23
2023-02-28T04:55:26.775Z,-1.23
2023-02-28T04:57:56.127Z,-1.34
2023-02-28T05:00:23.691Z,-1.42
2023-02-28T05:02:51.378Z,-1.44
2023-02-28T05:05:19.946Z,-1.44
2023-02-28T05:07:48.267Z,-1.34
2023-02-28T05:10:15.847Z,-1.37
2023-02-28T05:12:43.572Z,-1.32
2023-02-28T05:15:14.523Z,-1.31
2023-02-28T05:17:42.202Z,-1.42
2023-02-28T05:20:15.646Z,-1.48
2023-02-28T05:22:44.150Z,-1.48
2023-02-28T05:25:13.874Z,-1.55
2023-02-28T05:27:41.822Z,-1.61
2023-02-28T05:30:11.469Z,-1.64
2023-02-28T05:32:43.776Z,-1.75
2023-02-28T05:35:12.167Z,-1.82
2023-02-28T05:37:40.960Z,-1.86
2023-02-28T05:40:11.295Z,-1.83
2023-02-28T05:42:39.860Z,-1.85
2023-02-28T05:45:08.953Z,-1.93
2023-02-28T05:47:36.888Z,-1.89
2023-02-28T05:50:07.212Z,-1.79
2023-02-28T05:52:37.706Z,-1.86
2023-02-28T05:55:05.928Z,-2.00
2023-02-28T05:57:33.725Z,-2.12
2023-02-28T06:00:01.732Z,-2.15
2023-02-28T06:02:40.872Z,-2.12
2023-02-28T06:05:15.134Z,-2.09
2023-02-28T06:07:43.223Z,-2.07
2023-02-28T06:10:11.757Z,-2.11
2023-02-28T06:12:40.370Z,-2.05
2023-02-28T06:15:09.286Z,-2.01
2023-02-28T06:17:37.302Z,-1.81
2023-02-28T06:20:05.207Z,-1.73
2023-02-28T06:22:34.077Z,-1.71
2023-02-28T06:25:03.434Z,-1.79
2023-02-28T06:27:32.788Z,-1.70
2023-02-28T06:30:00.397Z,-1.68
2023-02-28T06:32:28.402Z,-1.79
2023-02-28T06:34:58.467Z,-1.78
2023-02-28T06:37:28.068Z,-1.75
2023-02-28T06:39:56.758Z,-1.57
2023-02-28T06:42:29.850Z,-1.48
2023-02-28T06:44:57.458Z,-1.39
2023-02-28T06:47:25.330Z,-1.58
2023-02-28T06:49:53.086Z,-1.39
2023-02-28T06:52:20.669Z,-1.16
2023-02-28T06:54:48.315Z,-0.93
2023-02-28T06:57:16.566Z,-0.94
2023-02-28T06:59:46.957Z,-0.80
2023-02-28T07:02:14.962Z,-0.68
2023-02-28T07:04:45.757Z,-0.65
2023-02-28T07:07:13.578Z,-0.67
2023-02-28T07:09:41.369Z,-0.44
2023-02-28T07:12:09.337Z,-0.26
2023-02-28T07:14:38.793Z,0.08
2023-02-28T07:17:08.530Z,0.20
2023-02-28T07:19:39.300Z,0.06
2023-02-28T07:22:06.841Z,0.29
2023-02-28T07:24:35.380Z,0.00
2023-02-28T07:27:03.025Z,0.48
2023-02-28T07:29:30.815Z,0.82
2023-02-28T07:31:58.952Z,0.50
2023-02-28T07:34:27.982Z,0.87
2023-02-28T07:36:55.931Z,0.88
2023-02-28T07:39:24.042Z,0.53
2023-02-28T07:41:52.092Z,0.83
2023-02-28T07:44:19.681Z,1.18
2023-02-28T07:46:47.665Z,1.20
2023-02-28T07:49:17.428Z,1.53
2023-02-28T07:51:46.492Z,1.53
2023-02-28T07:54:14.500Z,1.99
2023-02-28T07:56:42.116Z,1.99
2023-02-28T07:59:10.303Z,2.22
2023-02-28T08:01:39.233Z,1.97
2023-02-28T08:04:06.798Z,2.22
2023-02-28T08:06:34.540Z,2.31
2023-02-28T08:09:04.017Z,1.86
2023-02-28T08:11:32.058Z,2.34
2023-02-28T08:13:59.955Z,1.96
2023-02-28T08:16:28.020Z,2.33
2023-02-28T08:18:56.124Z,2.87
2023-02-28T08:21:26.044Z,2.86
2023-02-28T08:23:53.788Z,2.75
2023-02-28T08:26:22.831Z,3.21
2023-02-28T08:28:50.635Z,3.02
2023-02-28T08:31:18.829Z,2.85
2023-02-28T08:33:48.185Z,2.87
2023-02-28T08:36:16.519Z,2.82
2023-02-28T08:38:46.903Z,3.18
2023-02-28T08:41:14.979Z,3.78
2023-02-28T08:43:44.236Z,3.11
2023-02-28T08:46:13.599Z,3.34
2023-02-28T08:48:42.798Z,2.80
2023-02-28T08:51:12.405Z,2.85
2023-02-28T08:53:41.568Z,3.08
2023-02-28T08:56:17.584Z,3.04
2023-02-28T08:58:48.009Z,3.46
2023-02-28T09:01:16.895Z,2.98
2023-02-28T09:03:48.207Z,3.18
2023-02-28T09:06:16.754Z,3.64
2023-02-28T09:08:47.594Z,3.42
2023-02-28T09:11:15.262Z,3.62
2023-02-28T09:13:43.059Z,3.54
2023-02-28T09:16:13.140Z,4.07
2023-02-28T09:18:41.898Z,3.91
2023-02-28T09:21:10.606Z,3.42
2023-02-28T09:23:39.354Z,3.47
2023-02-28T09:26:07.489Z,3.78
2023-02-28T09:28:36.555Z,3.96
2023-02-28T09:31:05.969Z,3.88
2023-02-28T09:33:36.507Z,3.88
2023-02-28T09:36:04.707Z,3.91
2023-02-28T09:38:32.739Z,4.08
2023-02-28T09:41:02.627Z,4.71
2023-02-28T09:43:33.886Z,4.85
2023-02-28T09:46:06.706Z,5.24
2023-02-28T09:48:41.095Z,5.40
2023-02-28T09:51:14.793Z,5.74
2023-02-28T09:53:45.788Z,5.64
2023-02-28T09:56:21.192Z,5.76
2023-02-28T09:58:51.181Z,5.68
2023-02-28T10:01:24.104Z,6.14
2023-02-28T10:03:58.585Z,6.10
2023-02-28T10:06:31.328Z,6.49
2023-02-28T10:09:03.555Z,7.02
2023-02-28T10:11:32.924Z,6.67
2023-02-28T10:14:05.670Z,7.72
2023-02-28T10:16:42.608Z,7.06
2023-02-28T10:19:14.682Z,7.68
2023-02-28T10:21:45.017Z,7.34
2023-02-28T10:24:21.153Z,6.65
2023-02-28T10:26:49.844Z,6.80
2023-02-28T10:29:17.484Z,6.53
2023-02-28T10:31:45.356Z,6.09
2023-02-28T10:34:15.053Z,5.28
2023-02-28T10:36:45.825Z,4.59
2023-02-28T10:39:33.765Z,6.27
2023-02-28T10:42:01.843Z,6.48
2023-02-28T10:44:29.664Z,6.14
2023-02-28T10:47:01.172Z,7.95
2023-02-28T10:49:31.232Z,7.59
2023-02-28T10:52:00.140Z,9.39
2023-02-28T10:54:32.669Z,7.99
2023-02-28T10:57:19.408Z,7.28
2023-02-28T10:59:47.394Z,6.95
2023-02-28T11:02:36.019Z,6.53
2023-02-28T11:05:24.251Z,6.32
2023-02-28T11:07:56.270Z,5.86
2023-02-28T11:10:27.892Z,6.97
2023-02-28T11:12:59.803Z,8.96
2023-02-28T11:15:31.086Z,9.23
2023-02-28T11:18:00.956Z,9.75
2023-02-28T11:20:31.904Z,9.85
2023-02-28T11:23:03.731Z,10.82
2023-02-28T11:25:35.278Z,10.91
2023-02-28T11:28:08.493Z,9.89
2023-02-28T11:30:39.315Z,9.29
2023-02-28T11:33:24.824Z,10.89
2023-02-28T11:35:55.071Z,8.60
2023-02-28T11:38:27.949Z,10.89
2023-02-28T11:41:07.343Z,11.89
2023-02-28T11:43:54.211Z,12.48
2023-02-28T11:46:30.943Z,12.05
2023-02-28T11:49:05.311Z,12.66
2023-02-28T11:51:36.759Z,12.36
2023-02-28T11:54:14.316Z,12.40
2023-02-28T11:56:46.171Z,12.01
2023-02-28T11:59:25.833Z,13.24
2023-02-28T12:02:03.391Z,13.67
2023-02-28T12:04:37.128Z,12.22
2023-02-28T12:07:11.137Z,12.33
2023-02-28T12:09:46.122Z,11.61
2023-02-28T12:12:25.515Z,12.33
2023-02-28T12:15:02.098Z,16.02
2023-02-28T12:17:37.009Z,14.55
2023-02-28T12:20:12.932Z,12.70
2023-02-28T12:22:45.822Z,10.28
2023-02-28T12:25:26.753Z,12.30
2023-02-28T12:27:55.711Z,13.78
2023-02-28T12:30:27.458Z,13.68
2023-02-28T12:32:57.513Z,11.96
2023-02-28T12:35:27.452Z,12.14
2023-02-28T12:37:59.287Z,13.08
2023-02-28T12:40:29.705Z,12.03
2023-02-28T12:42:59.534Z,10.85
2023-02-28T12:45:29.870Z,9.67
2023-02-28T12:48:00.257Z,10.32
2023-02-28T12:50:31.263Z,11.66
2023-02-28T12:53:05.356Z,12.05
2023-02-28T12:55:43.286Z,14.94
2023-02-28T12:58:16.585Z,14.91
2023-02-28T13:00:51.424Z,15.64
2023-02-28T13:03:44.322Z,14.08
2023-02-28T13:06:25.045Z,15.42
2023-02-28T13:09:07.861Z,15.67
2023-02-28T13:11:42.679Z,14.95
2023-02-28T13:14:35.555Z,11.50
2023-02-28T13:17:05.334Z,9.18
2023-02-28T13:19:35.090Z,9.80
2023-02-28T13:22:04.038Z,9.71
2023-02-28T13:24:40.261Z,9.54
2023-02-28T13:27:29.310Z,9.91
2023-02-28T13:30:01.354Z,10.85
2023-02-28T13:32:41.227Z,9.48
2023-02-28T13:35:16.801Z,8.48
2023-02-28T13:37:46.305Z,8.80
2023-02-28T13:40:37.839Z,9.53
2023-02-28T13:43:09.957Z,9.43
2023-02-28T13:45:41.319Z,9.25
2023-02-28T13:48:20.914Z,9.90
2023-02-28T13:50:49.120Z,10.55
2023-02-28T13:53:34.926Z,11.22
2023-02-28T13:56:06.894Z,10.65
2023-02-28T13:58:43.372Z,10.50
2023-02-28T14:01:19.143Z,11.02
2023-02-28T14:04:07.297Z,10.43
2023-02-28T14:06:35.664Z,11.49
2023-02-28T14:09:08.511Z,13.83
2023-02-28T14:11:38.422Z,13.42
2023-02-28T14:14:08.352Z,12.41
2023-02-28T14:16:42.309Z,12.41
2023-02-28T14:19:16.792Z,12.24
2023-02-28T14:21:54.579Z,11.72
2023-02-28T14:24:43.628Z,9.08
2023-02-28T14:27:18.669Z,10.13
2023-02-28T14:30:08.398Z,9.70
2023-02-28T14:32:44.004Z,8.80
2023-02-28T14:35:19.076Z,10.14
2023-02-28T14:37:47.974Z,10.50
2023-02-28T14:40:18.331Z,9.60
2023-02-28T14:42:49.030Z,9.91
2023-02-28T14:45:21.509Z,9.03
2023-02-28T14:47:51.954Z,9.92
2023-02-28T14:50:21.978Z,9.90
2023-02-28T14:52:50.943Z,9.32
2023-02-28T14:55:21.083Z,9.40
2023-02-28T14:57:56.356Z,9.21
2023-02-28T15:00:25.549Z,9.50
2023-02-28T15:02:55.860Z,9.70
2023-02-28T15:05:26.473Z,9.51
2023-02-28T15:08:03.529Z,10.38
2023-02-28T15:10:32.694Z,9.60
2023-02-28T15:13:02.072Z,9.68
2023-02-28T15:15:46.410Z,9.39
2023-02-28T15:18:26.990Z,10.23
2023-02-28T15:20:55.804Z,10.85
2023-02-28T15:23:24.283Z,10.69
2023-02-28T15:25:53.507Z,8.85
2023-02-28T15:28:23.072Z,9.40
2023-02-28T15:30:59.379Z,9.15
2023-02-28T15:33:29.515Z,9.07
2023-02-28T15:36:06.893Z,8.15
2023-02-28T15:38:36.257Z,8.92
2023-02-28T15:41:12.080Z,9.82
2023-02-28T15:43:42.489Z,9.95
2023-02-28T15:46:11.879Z,9.98
2023-02-28T15:48:46.431Z,10.19
2023-02-28T15:51:18.986Z,9.50
2023-02-28T15:53:49.538Z,8.77
2023-02-28T15:56:23.339Z,9.54
2023-02-28T15:58:51.620Z,9.73
2023-02-28T16:01:23.062Z,10.44
2023-02-28T16:03:53.910Z,10.54
2023-02-28T16:06:39.459Z,9.05
2023-02-28T16:09:09.333Z,8.65
2023-02-28T16:11:39.780Z,8.78
2023-02-28T16:14:08.961Z,8.37
2023-02-28T16:16:36.759Z,7.84
2023-02-28T16:19:07.992Z,7.67
2023-02-28T16:21:35.845Z,7.98
2023-02-28T16:24:04.055Z,7.67
2023-02-28T16:26:35.194Z,7.35
2023-02-28T16:29:03.043Z,7.21
2023-02-28T16:31:31.430Z,7.07
2023-02-28T16:33:59.296Z,6.96
2023-02-28T16:36:28.875Z,6.48
2023-02-28T16:38:57.244Z,6.19
2023-02-28T16:41:26.994Z,6.03
2023-02-28T16:43:59.719Z,5.93
2023-02-28T16:46:29.776Z,5.65
2023-02-28T16:48:57.770Z,5.36
2023-02-28T16:51:25.654Z,5.13
2023-02-28T16:53:55.535Z,5.15
2023-02-28T16:56:24.534Z,4.64
2023-02-28T16:58:53.077Z,4.37
2023-02-28T17:01:22.839Z,4.16
2023-02-28T17:03:50.935Z,4.00
2023-02-28T17:06:22.038Z,3.84
2023-02-28T17:08:50.013Z,3.73
2023-02-28T17:11:19.444Z,3.71
2023-02-28T17:13:47.481Z,3.62
2023-02-28T17:16:18.286Z,3.53
2023-02-28T17:18:46.298Z,3.51
2023-02-28T17:21:15.940Z,3.39
2023-02-28T17:23:43.840Z,3.34
2023-02-28T17:26:14.895Z,3.34
2023-02-28T17:28:43.956Z,3.32
2023-02-28T17:31:11.616Z,3.22
2023-02-28T17:33:39.642Z,3.13
2023-02-28T17:36:08.428Z,3.12
2023-02-28T17:38:36.368Z,3.08
2023-02-28T17:41:04.046Z,3.09
2023-02-28T17:43:31.700Z,3.06
2023-02-28T17:46:00.727Z,3.08
2023-02-28T17:48:29.001Z,3.03
2023-02-28T17:54:39.357Z,2.89
2023-02-28T17:57:07.186Z,2.90
2023-02-28T17:59:35.199Z,2.82
2023-02-28T18:02:05.403Z,2.86
2023-02-28T18:04:33.923Z,2.86
2023-02-28T18:07:02.018Z,2.80
2023-02-28T18:09:29.720Z,2.73
2023-02-28T18:11:57.885Z,2.74
2023-02-28T18:14:26.457Z,2.69
2023-02-28T18:16:54.748Z,2.73
2023-02-28T18:19:23.587Z,2.67
2023-02-28T18:21:52.344Z,2.58
2023-02-28T18:24:21.525Z,2.54
2023-02-28T18:26:49.355Z,2.56
2023-02-28T18:29:17.788Z,2.43
2023-02-28T18:31:45.658Z,2.38
2023-02-28T18:34:13.325Z,2.35
2023-02-28T18:36:43.012Z,2.32
2023-02-28T18:39:12.218Z,2.25
2023-02-28T18:41:40.362Z,2.22
2023-02-28T18:44:19.176Z,2.17
2023-02-28T18:46:47.819Z,2.17
2023-02-28T18:49:15.839Z,2.11
2023-02-28T18:51:45.598Z,2.13
2023-02-28T18:54:13.527Z,2.04
2023-02-28T18:56:41.386Z,1.99
2023-02-28T18:59:09.220Z,1.94
2023-02-28T19:01:37.015Z,1.92
2023-02-28T19:04:05.267Z,1.87
2023-02-28T19:06:34.783Z,1.77
2023-02-28T19:09:05.098Z,1.68
2023-02-28T19:11:35.622Z,1.73
2023-02-28T19:14:10.306Z,1.74
2023-02-28T19:16:38.246Z,1.64
2023-02-28T19:19:08.579Z,1.63
2023-02-28T19:21:37.074Z,1.52
2023-02-28T19:24:06.974Z,1.44
2023-02-28T19:26:34.878Z,1.46
2023-02-28T19:29:03.521Z,1.44
2023-02-28T19:31:31.848Z,1.46
2023-02-28T19:33:59.860Z,1.46
2023-02-28T19:36:28.638Z,1.57
2023-02-28T19:38:56.728Z,1.56
2023-02-28T19:41:27.115Z,1.47
2023-02-28T19:43:55.317Z,1.52
2023-02-28T19:46:23.329Z,1.42
2023-02-28T19:48:54.536Z,1.40
2023-02-28T19:51:23.046Z,1.38
2023-02-28T19:53:52.904Z,1.28
2023-02-28T19:56:20.777Z,1.19
2023-02-28T19:58:49.897Z,1.24
2023-02-28T20:01:20.571Z,1.28
2023-02-28T20:03:49.527Z,1.27
2023-02-28T20:06:17.507Z,1.26
2023-02-28T20:08:45.553Z,1.21
2023-02-28T20:11:15.215Z,1.21
2023-02-28T20:13:43.416Z,1.17
2023-02-28T20:16:13.370Z,1.22
2023-02-28T20:18:44.257Z,1.21
2023-02-28T20:21:12.831Z,1.22
2023-02-28T20:23:41.939Z,1.12
2023-02-28T20:26:11.093Z,1.16
2023-02-28T20:28:39.054Z,1.03
2023-02-28T20:31:14.136Z,1.02
2023-02-28T20:33:41.924Z,1.03
2023-02-28T20:36:12.601Z,1.01
2023-02-28T20:38:41.628Z,0.99
2023-02-28T20:41:09.917Z,0.99
2023-02-28T20:43:37.956Z,0.90
2023-02-28T20:46:06.776Z,0.88
2023-02-28T20:48:36.721Z,0.86
2023-02-28T20:51:05.158Z,0.80
2023-02-28T20:53:33.839Z,0.74
2023-02-28T20:56:03.054Z,0.71
2023-02-28T20:58:33.174Z,0.69
2023-02-28T21:01:02.960Z,0.64
2023-02-28T21:03:31.006Z,0.65
2023-02-28T21:06:04.607Z,0.62
2023-02-28T21:08:32.656Z,0.61
2023-02-28T21:11:00.449Z,0.53
2023-02-28T21:13:28.705Z,0.59
2023-02-28T21:15:56.675Z,0.57
2023-02-28T21:18:26.715Z,0.51
2023-02-28T21:21:01.275Z,0.49
2023-02-28T21:23:31.651Z,0.45
2023-02-28T21:26:02.581Z,0.43
2023-02-28T21:28:30.339Z,0.46
2023-02-28T21:31:01.821Z,0.46
2023-02-28T21:33:30.257Z,0.42
2023-02-28T21:36:02.322Z,0.50
2023-02-28T21:38:31.849Z,0.50
2023-02-28T21:41:04.567Z,0.52
2023-02-28T21:43:32.688Z,0.43
2023-02-28T21:46:02.187Z,0.42
2023-02-28T21:48:30.764Z,0.59
2023-02-28T21:50:58.853Z,0.52
2023-02-28T21:53:26.639Z,0.48
2023-02-28T21:55:56.402Z,0.45
2023-02-28T21:58:24.260Z,0.34
2023-02-28T22:00:52.255Z,0.32
2023-02-28T22:03:20.197Z,0.31
2023-02-28T22:05:48.101Z,0.31
2023-02-28T22:08:15.912Z,0.26
2023-02-28T22:10:45.600Z,0.25
2023-02-28T22:13:15.265Z,0.15
2023-02-28T22:15:43.300Z,0.17
2023-02-28T22:18:11.764Z,0.11
2023-02-28T22:20:41.040Z,0.16
2023-02-28T22:23:08.587Z,0.10
2023-02-28T22:25:37.720Z,0.02
2023-02-28T22:28:05.597Z,0.01
2023-02-28T22:30:34.936Z,-0.05
2023-02-28T22:33:03.303Z,-0.13
2023-02-28T22:35:31.167Z,-0.21
2023-02-28T22:37:58.970Z,-0.15
2023-02-28T22:40:27.105Z,-0.18
2023-02-28T22:42:54.847Z,-0.16
2023-02-28T22:45:22.697Z,-0.16
2023-02-28T22:47:51.943Z,-0.14
2023-02-28T22:50:22.377Z,-0.11
2023-02-28T22:52:50.445Z,-0.18
2023-02-28T22:55:19.399Z,-0.25
2023-02-28T22:57:47.243Z,-0.22
2023-02-28T23:00:16.338Z,-0.29
2023-02-28T23:02:46.675Z,-0.35
2023-02-28T23:05:16.395Z,-0.42
2023-02-28T23:07:44.592Z,-0.43
2023-02-28T23:10:14.026Z,-0.46
2023-02-28T23:12:53.849Z,-0.39
2023-02-28T23:15:23.408Z,-0.34
2023-02-28T23:17:52.201Z,-0.35
2023-02-28T23:20:24.160Z,-0.42
2023-02-28T23:22:52.445Z,-0.47
2023-02-28T23:25:21.130Z,-0.56
2023-02-28T23:27:49.256Z,-0.58
2023-02-28T23:30:17.587Z,-0.60
2023-02-28T23:32:45.667Z,-0.58
2023-02-28T23:35:14.425Z,-0.64
2023-02-28T23:37:47.174Z,-0.61
2023-02-28T23:40:16.375Z,-0.59
2023-02-28T23:42:44.987Z,-0.54
2023-02-28T23:45:12.857Z,-0.55
2023-02-28T23:47:40.636Z,-0.48
2023-02-28T23:50:09.088Z,-0.45
2023-02-28T23:52:37.211Z,-0.45
2023-02-28T23:55:07.822Z,-0.49
2023-02-28T23:57:35.997Z,-0.45
